sensor_id;sensor_type;location;lat;lon;timestamp;P1;durP1;ratioP1;P2;durP2;ratioP2
74223;SDS011;62585;49.706;18.216;2024-02-23T00:01:27;3.03;;;1.83;;
74223;SDS011;62585;49.706;18.216;2024-02-23T00:03:53;3.45;;;2.00;;
74223;SDS011;62585;49.706;18.216;2024-02-23T00:06:20;5.25;;;2.00;;
74223;SDS011;62585;49.706;18.216;2024-02-23T00:08:48;2.72;;;1.63;;
74223;SDS011;62585;49.706;18.216;2024-02-23T00:11:13;2.70;;;1.40;;
74223;SDS011;62585;49.706;18.216;2024-02-23T00:13:39;3.20;;;1.38;;
74223;SDS011;62585;49.706;18.216;2024-02-23T00:16:05;3.08;;;1.73;;
74223;SDS011;62585;49.706;18.216;2024-02-23T00:18:31;2.65;;;1.40;;
74223;SDS011;62585;49.706;18.216;2024-02-23T00:20:56;2.13;;;1.67;;
74223;SDS011;62585;49.706;18.216;2024-02-23T00:23:22;2.35;;;1.80;;
74223;SDS011;62585;49.706;18.216;2024-02-23T00:25:48;3.35;;;2.13;;
74223;SDS011;62585;49.706;18.216;2024-02-23T00:28:14;2.35;;;1.52;;
74223;SDS011;62585;49.706;18.216;2024-02-23T00:30:40;2.80;;;1.63;;
74223;SDS011;62585;49.706;18.216;2024-02-23T00:33:05;2.83;;;1.83;;
74223;SDS011;62585;49.706;18.216;2024-02-23T00:35:31;3.67;;;1.45;;
74223;SDS011;62585;49.706;18.216;2024-02-23T00:37:57;2.58;;;1.60;;
74223;SDS011;62585;49.706;18.216;2024-02-23T00:40:22;2.88;;;1.70;;
74223;SDS011;62585;49.706;18.216;2024-02-23T00:42:49;4.55;;;2.22;;
74223;SDS011;62585;49.706;18.216;2024-02-23T00:45:14;4.65;;;1.80;;
74223;SDS011;62585;49.706;18.216;2024-02-23T00:47:40;3.25;;;1.63;;
74223;SDS011;62585;49.706;18.216;2024-02-23T00:50:06;2.13;;;1.50;;
74223;SDS011;62585;49.706;18.216;2024-02-23T00:52:32;2.53;;;1.48;;
74223;SDS011;62585;49.706;18.216;2024-02-23T00:54:57;4.13;;;1.48;;
74223;SDS011;62585;49.706;18.216;2024-02-23T00:57:23;2.05;;;1.80;;
74223;SDS011;62585;49.706;18.216;2024-02-23T00:59:58;1.70;;;1.02;;
74223;SDS011;62585;49.706;18.216;2024-02-23T01:02:24;3.15;;;1.27;;
74223;SDS011;62585;49.706;18.216;2024-02-23T01:04:49;2.78;;;1.75;;
74223;SDS011;62585;49.706;18.216;2024-02-23T01:07:15;3.25;;;1.40;;
74223;SDS011;62585;49.706;18.216;2024-02-23T01:09:41;2.60;;;1.55;;
74223;SDS011;62585;49.706;18.216;2024-02-23T01:12:07;2.03;;;1.10;;
74223;SDS011;62585;49.706;18.216;2024-02-23T01:14:32;2.42;;;1.35;;
74223;SDS011;62585;49.706;18.216;2024-02-23T01:16:58;2.25;;;1.67;;
74223;SDS011;62585;49.706;18.216;2024-02-23T01:19:24;1.70;;;1.30;;
74223;SDS011;62585;49.706;18.216;2024-02-23T01:21:50;4.72;;;1.73;;
74223;SDS011;62585;49.706;18.216;2024-02-23T01:24:24;2.00;;;1.33;;
74223;SDS011;62585;49.706;18.216;2024-02-23T01:26:51;3.40;;;1.80;;
74223;SDS011;62585;49.706;18.216;2024-02-23T01:29:17;1.35;;;1.00;;
74223;SDS011;62585;49.706;18.216;2024-02-23T01:31:43;1.73;;;1.50;;
74223;SDS011;62585;49.706;18.216;2024-02-23T01:34:08;1.83;;;1.17;;
74223;SDS011;62585;49.706;18.216;2024-02-23T01:36:34;1.42;;;0.93;;
74223;SDS011;62585;49.706;18.216;2024-02-23T01:39:01;1.77;;;0.90;;
74223;SDS011;62585;49.706;18.216;2024-02-23T01:41:27;0.65;;;0.60;;
74223;SDS011;62585;49.706;18.216;2024-02-23T01:43:53;2.17;;;1.50;;
74223;SDS011;62585;49.706;18.216;2024-02-23T01:46:19;2.03;;;1.25;;
74223;SDS011;62585;49.706;18.216;2024-02-23T01:48:45;4.90;;;1.23;;
74223;SDS011;62585;49.706;18.216;2024-02-23T01:51:11;1.63;;;0.88;;
74223;SDS011;62585;49.706;18.216;2024-02-23T01:53:38;1.40;;;1.00;;
74223;SDS011;62585;49.706;18.216;2024-02-23T01:56:04;2.38;;;1.63;;
74223;SDS011;62585;49.706;18.216;2024-02-23T01:58:30;2.15;;;1.10;;
74223;SDS011;62585;49.706;18.216;2024-02-23T02:00:56;1.83;;;0.85;;
74223;SDS011;62585;49.706;18.216;2024-02-23T02:03:22;2.72;;;1.10;;
74223;SDS011;62585;49.706;18.216;2024-02-23T02:05:48;2.13;;;1.20;;
74223;SDS011;62585;49.706;18.216;2024-02-23T02:08:15;2.53;;;1.50;;
74223;SDS011;62585;49.706;18.216;2024-02-23T02:13:16;1.88;;;1.15;;
74223;SDS011;62585;49.706;18.216;2024-02-23T02:15:42;1.70;;;0.95;;
74223;SDS011;62585;49.706;18.216;2024-02-23T02:18:09;1.92;;;1.20;;
74223;SDS011;62585;49.706;18.216;2024-02-23T02:20:36;1.75;;;1.33;;
74223;SDS011;62585;49.706;18.216;2024-02-23T02:23:02;1.35;;;0.98;;
74223;SDS011;62585;49.706;18.216;2024-02-23T02:25:28;1.67;;;1.13;;
74223;SDS011;62585;49.706;18.216;2024-02-23T02:27:54;2.13;;;1.63;;
74223;SDS011;62585;49.706;18.216;2024-02-23T02:30:20;2.60;;;1.50;;
74223;SDS011;62585;49.706;18.216;2024-02-23T02:32:46;2.13;;;1.30;;
74223;SDS011;62585;49.706;18.216;2024-02-23T02:35:12;2.65;;;1.50;;
74223;SDS011;62585;49.706;18.216;2024-02-23T02:37:37;1.45;;;0.88;;
74223;SDS011;62585;49.706;18.216;2024-02-23T02:40:04;1.75;;;1.10;;
74223;SDS011;62585;49.706;18.216;2024-02-23T02:42:30;2.83;;;1.20;;
74223;SDS011;62585;49.706;18.216;2024-02-23T02:44:56;2.25;;;1.15;;
74223;SDS011;62585;49.706;18.216;2024-02-23T02:47:22;2.08;;;1.30;;
74223;SDS011;62585;49.706;18.216;2024-02-23T02:49:48;4.20;;;1.58;;
74223;SDS011;62585;49.706;18.216;2024-02-23T02:52:14;2.28;;;1.42;;
74223;SDS011;62585;49.706;18.216;2024-02-23T02:54:40;2.63;;;1.33;;
74223;SDS011;62585;49.706;18.216;2024-02-23T02:57:05;1.80;;;1.40;;
74223;SDS011;62585;49.706;18.216;2024-02-23T02:59:34;2.22;;;1.25;;
74223;SDS011;62585;49.706;18.216;2024-02-23T03:02:00;4.70;;;1.77;;
74223;SDS011;62585;49.706;18.216;2024-02-23T03:04:26;1.38;;;1.08;;
74223;SDS011;62585;49.706;18.216;2024-02-23T03:06:52;1.77;;;1.02;;
74223;SDS011;62585;49.706;18.216;2024-02-23T03:09:18;1.58;;;1.00;;
74223;SDS011;62585;49.706;18.216;2024-02-23T03:11:43;2.50;;;1.23;;
74223;SDS011;62585;49.706;18.216;2024-02-23T03:14:09;2.72;;;0.90;;
74223;SDS011;62585;49.706;18.216;2024-02-23T03:16:35;1.88;;;0.73;;
74223;SDS011;62585;49.706;18.216;2024-02-23T03:19:03;1.48;;;1.00;;
74223;SDS011;62585;49.706;18.216;2024-02-23T03:21:30;1.77;;;1.30;;
74223;SDS011;62585;49.706;18.216;2024-02-23T03:23:56;1.75;;;1.20;;
74223;SDS011;62585;49.706;18.216;2024-02-23T03:26:21;1.55;;;0.90;;
74223;SDS011;62585;49.706;18.216;2024-02-23T03:28:47;2.90;;;1.08;;
74223;SDS011;62585;49.706;18.216;2024-02-23T03:31:14;1.58;;;1.02;;
74223;SDS011;62585;49.706;18.216;2024-02-23T03:33:39;1.55;;;0.90;;
74223;SDS011;62585;49.706;18.216;2024-02-23T03:36:05;3.30;;;0.82;;
74223;SDS011;62585;49.706;18.216;2024-02-23T03:38:31;2.22;;;1.30;;
74223;SDS011;62585;49.706;18.216;2024-02-23T03:40:59;1.45;;;1.00;;
74223;SDS011;62585;49.706;18.216;2024-02-23T03:43:25;2.15;;;1.20;;
74223;SDS011;62585;49.706;18.216;2024-02-23T03:45:51;1.52;;;0.98;;
74223;SDS011;62585;49.706;18.216;2024-02-23T03:48:16;2.03;;;1.00;;
74223;SDS011;62585;49.706;18.216;2024-02-23T03:50:42;2.10;;;1.10;;
74223;SDS011;62585;49.706;18.216;2024-02-23T03:53:08;2.45;;;1.30;;
74223;SDS011;62585;49.706;18.216;2024-02-23T03:55:33;2.85;;;0.93;;
74223;SDS011;62585;49.706;18.216;2024-02-23T03:57:59;1.10;;;0.77;;
74223;SDS011;62585;49.706;18.216;2024-02-23T04:00:25;1.80;;;0.98;;
74223;SDS011;62585;49.706;18.216;2024-02-23T04:02:50;2.00;;;1.23;;
74223;SDS011;62585;49.706;18.216;2024-02-23T04:05:17;1.88;;;1.00;;
74223;SDS011;62585;49.706;18.216;2024-02-23T04:07:44;1.80;;;0.77;;
74223;SDS011;62585;49.706;18.216;2024-02-23T04:10:10;1.90;;;1.00;;
74223;SDS011;62585;49.706;18.216;2024-02-23T04:12:35;1.92;;;1.33;;
74223;SDS011;62585;49.706;18.216;2024-02-23T04:15:01;2.30;;;1.10;;
74223;SDS011;62585;49.706;18.216;2024-02-23T04:17:27;1.10;;;0.80;;
74223;SDS011;62585;49.706;18.216;2024-02-23T04:19:52;2.30;;;1.27;;
74223;SDS011;62585;49.706;18.216;2024-02-23T04:22:18;1.33;;;0.60;;
74223;SDS011;62585;49.706;18.216;2024-02-23T04:24:44;2.30;;;1.73;;
74223;SDS011;62585;49.706;18.216;2024-02-23T04:27:10;1.17;;;0.80;;
74223;SDS011;62585;49.706;18.216;2024-02-23T04:29:35;1.33;;;0.80;;
74223;SDS011;62585;49.706;18.216;2024-02-23T04:32:01;1.25;;;0.63;;
74223;SDS011;62585;49.706;18.216;2024-02-23T04:34:28;0.88;;;0.68;;
74223;SDS011;62585;49.706;18.216;2024-02-23T04:36:54;2.47;;;0.60;;
74223;SDS011;62585;49.706;18.216;2024-02-23T04:39:20;1.67;;;1.10;;
74223;SDS011;62585;49.706;18.216;2024-02-23T04:41:47;2.97;;;1.60;;
74223;SDS011;62585;49.706;18.216;2024-02-23T04:44:12;3.45;;;1.13;;
74223;SDS011;62585;49.706;18.216;2024-02-23T04:46:38;4.18;;;1.70;;
74223;SDS011;62585;49.706;18.216;2024-02-23T04:49:04;2.08;;;0.73;;
74223;SDS011;62585;49.706;18.216;2024-02-23T04:51:30;2.03;;;1.15;;
74223;SDS011;62585;49.706;18.216;2024-02-23T04:53:55;1.02;;;0.65;;
74223;SDS011;62585;49.706;18.216;2024-02-23T04:56:21;1.50;;;0.73;;
74223;SDS011;62585;49.706;18.216;2024-02-23T04:58:47;1.40;;;0.80;;
74223;SDS011;62585;49.706;18.216;2024-02-23T05:01:12;2.55;;;1.10;;
74223;SDS011;62585;49.706;18.216;2024-02-23T05:03:38;2.60;;;1.10;;
74223;SDS011;62585;49.706;18.216;2024-02-23T05:06:04;2.13;;;0.90;;
74223;SDS011;62585;49.706;18.216;2024-02-23T05:08:30;1.70;;;1.00;;
74223;SDS011;62585;49.706;18.216;2024-02-23T05:10:56;2.60;;;1.10;;
74223;SDS011;62585;49.706;18.216;2024-02-23T05:13:22;2.63;;;0.82;;
74223;SDS011;62585;49.706;18.216;2024-02-23T05:15:49;1.95;;;0.65;;
74223;SDS011;62585;49.706;18.216;2024-02-23T05:18:15;3.55;;;1.65;;
74223;SDS011;62585;49.706;18.216;2024-02-23T05:20:41;6.30;;;2.53;;
74223;SDS011;62585;49.706;18.216;2024-02-23T05:23:06;3.42;;;1.45;;
74223;SDS011;62585;49.706;18.216;2024-02-23T05:25:33;6.22;;;1.88;;
74223;SDS011;62585;49.706;18.216;2024-02-23T05:27:58;3.47;;;1.45;;
74223;SDS011;62585;49.706;18.216;2024-02-23T05:30:24;0.80;;;0.50;;
74223;SDS011;62585;49.706;18.216;2024-02-23T05:32:52;1.10;;;0.60;;
74223;SDS011;62585;49.706;18.216;2024-02-23T05:35:18;0.95;;;0.60;;
74223;SDS011;62585;49.706;18.216;2024-02-23T05:37:44;2.40;;;0.55;;
74223;SDS011;62585;49.706;18.216;2024-02-23T05:40:10;1.00;;;0.60;;
74223;SDS011;62585;49.706;18.216;2024-02-23T05:42:36;1.02;;;0.70;;
74223;SDS011;62585;49.706;18.216;2024-02-23T05:45:02;3.92;;;1.95;;
74223;SDS011;62585;49.706;18.216;2024-02-23T05:47:37;3.33;;;2.20;;
74223;SDS011;62585;49.706;18.216;2024-02-23T05:50:04;2.80;;;1.75;;
74223;SDS011;62585;49.706;18.216;2024-02-23T05:52:33;1.80;;;1.30;;
74223;SDS011;62585;49.706;18.216;2024-02-23T05:54:59;1.77;;;1.10;;
74223;SDS011;62585;49.706;18.216;2024-02-23T05:57:26;1.98;;;1.23;;
74223;SDS011;62585;49.706;18.216;2024-02-23T05:59:52;3.85;;;1.92;;
74223;SDS011;62585;49.706;18.216;2024-02-23T06:02:18;3.25;;;2.28;;
74223;SDS011;62585;49.706;18.216;2024-02-23T06:04:44;7.32;;;3.40;;
74223;SDS011;62585;49.706;18.216;2024-02-23T06:07:10;7.30;;;2.03;;
74223;SDS011;62585;49.706;18.216;2024-02-23T06:09:36;2.17;;;0.77;;
74223;SDS011;62585;49.706;18.216;2024-02-23T06:12:02;1.10;;;0.80;;
74223;SDS011;62585;49.706;18.216;2024-02-23T06:14:28;1.30;;;0.80;;
74223;SDS011;62585;49.706;18.216;2024-02-23T06:16:53;1.13;;;0.85;;
74223;SDS011;62585;49.706;18.216;2024-02-23T06:19:19;1.13;;;0.90;;
74223;SDS011;62585;49.706;18.216;2024-02-23T06:21:48;1.48;;;0.90;;
74223;SDS011;62585;49.706;18.216;2024-02-23T06:24:15;1.25;;;0.80;;
74223;SDS011;62585;49.706;18.216;2024-02-23T06:26:41;8.23;;;2.58;;
74223;SDS011;62585;49.706;18.216;2024-02-23T06:29:07;1.63;;;1.13;;
74223;SDS011;62585;49.706;18.216;2024-02-23T06:31:40;1.10;;;0.80;;
74223;SDS011;62585;49.706;18.216;2024-02-23T06:34:07;3.30;;;1.58;;
74223;SDS011;62585;49.706;18.216;2024-02-23T06:36:33;1.75;;;0.80;;
74223;SDS011;62585;49.706;18.216;2024-02-23T06:38:59;2.03;;;1.05;;
74223;SDS011;62585;49.706;18.216;2024-02-23T06:41:24;1.60;;;0.70;;
74223;SDS011;62585;49.706;18.216;2024-02-23T06:43:51;1.42;;;0.80;;
74223;SDS011;62585;49.706;18.216;2024-02-23T06:46:21;0.90;;;0.52;;
74223;SDS011;62585;49.706;18.216;2024-02-23T06:48:46;1.05;;;0.75;;
74223;SDS011;62585;49.706;18.216;2024-02-23T06:51:12;0.95;;;0.60;;
74223;SDS011;62585;49.706;18.216;2024-02-23T06:53:38;1.73;;;1.00;;
74223;SDS011;62585;49.706;18.216;2024-02-23T06:56:04;0.60;;;0.60;;
74223;SDS011;62585;49.706;18.216;2024-02-23T06:58:29;1.30;;;0.80;;
74223;SDS011;62585;49.706;18.216;2024-02-23T07:00:55;2.25;;;1.30;;
74223;SDS011;62585;49.706;18.216;2024-02-23T07:03:21;2.13;;;1.05;;
74223;SDS011;62585;49.706;18.216;2024-02-23T07:05:47;2.83;;;1.73;;
74223;SDS011;62585;49.706;18.216;2024-02-23T07:08:13;2.20;;;1.30;;
74223;SDS011;62585;49.706;18.216;2024-02-23T07:10:39;1.80;;;1.10;;
74223;SDS011;62585;49.706;18.216;2024-02-23T07:13:05;2.42;;;1.02;;
74223;SDS011;62585;49.706;18.216;2024-02-23T07:15:32;1.17;;;0.90;;
74223;SDS011;62585;49.706;18.216;2024-02-23T07:17:58;2.67;;;1.17;;
74223;SDS011;62585;49.706;18.216;2024-02-23T07:20:24;1.52;;;0.82;;
74223;SDS011;62585;49.706;18.216;2024-02-23T07:22:50;2.88;;;1.23;;
74223;SDS011;62585;49.706;18.216;2024-02-23T07:25:19;1.98;;;1.10;;
74223;SDS011;62585;49.706;18.216;2024-02-23T07:27:46;2.20;;;1.05;;
74223;SDS011;62585;49.706;18.216;2024-02-23T07:30:14;2.60;;;1.33;;
74223;SDS011;62585;49.706;18.216;2024-02-23T07:32:40;2.72;;;1.63;;
74223;SDS011;62585;49.706;18.216;2024-02-23T07:35:06;1.20;;;0.93;;
74223;SDS011;62585;49.706;18.216;2024-02-23T07:37:32;1.77;;;1.00;;
74223;SDS011;62585;49.706;18.216;2024-02-23T07:39:58;2.10;;;1.13;;
74223;SDS011;62585;49.706;18.216;2024-02-23T07:42:24;1.70;;;0.95;;
74223;SDS011;62585;49.706;18.216;2024-02-23T07:44:49;2.85;;;1.15;;
74223;SDS011;62585;49.706;18.216;2024-02-23T07:47:15;1.23;;;1.02;;
74223;SDS011;62585;49.706;18.216;2024-02-23T07:49:41;2.05;;;0.88;;
74223;SDS011;62585;49.706;18.216;2024-02-23T07:52:06;1.63;;;0.98;;
74223;SDS011;62585;49.706;18.216;2024-02-23T07:54:35;1.73;;;1.15;;
74223;SDS011;62585;49.706;18.216;2024-02-23T07:57:01;1.50;;;0.80;;
74223;SDS011;62585;49.706;18.216;2024-02-23T07:59:29;1.48;;;1.05;;
74223;SDS011;62585;49.706;18.216;2024-02-23T08:01:55;1.48;;;0.88;;
74223;SDS011;62585;49.706;18.216;2024-02-23T08:04:21;0.98;;;0.65;;
74223;SDS011;62585;49.706;18.216;2024-02-23T08:06:46;1.58;;;0.82;;
74223;SDS011;62585;49.706;18.216;2024-02-23T08:09:13;2.75;;;1.05;;
74223;SDS011;62585;49.706;18.216;2024-02-23T08:11:39;2.28;;;1.13;;
74223;SDS011;62585;49.706;18.216;2024-02-23T08:14:05;2.35;;;1.27;;
74223;SDS011;62585;49.706;18.216;2024-02-23T08:16:30;2.28;;;1.10;;
74223;SDS011;62585;49.706;18.216;2024-02-23T08:18:56;2.13;;;1.20;;
74223;SDS011;62585;49.706;18.216;2024-02-23T08:21:22;2.10;;;1.25;;
74223;SDS011;62585;49.706;18.216;2024-02-23T08:23:48;6.97;;;1.50;;
74223;SDS011;62585;49.706;18.216;2024-02-23T08:26:13;1.67;;;1.20;;
74223;SDS011;62585;49.706;18.216;2024-02-23T08:28:40;1.63;;;1.05;;
74223;SDS011;62585;49.706;18.216;2024-02-23T08:31:06;1.95;;;1.35;;
74223;SDS011;62585;49.706;18.216;2024-02-23T08:33:31;2.47;;;1.00;;
74223;SDS011;62585;49.706;18.216;2024-02-23T08:35:57;2.95;;;1.45;;
74223;SDS011;62585;49.706;18.216;2024-02-23T08:38:23;1.90;;;0.85;;
74223;SDS011;62585;49.706;18.216;2024-02-23T08:40:48;1.23;;;0.77;;
74223;SDS011;62585;49.706;18.216;2024-02-23T08:43:15;4.30;;;0.60;;
74223;SDS011;62585;49.706;18.216;2024-02-23T08:45:41;1.50;;;1.00;;
74223;SDS011;62585;49.706;18.216;2024-02-23T08:48:07;1.75;;;1.08;;
74223;SDS011;62585;49.706;18.216;2024-02-23T08:50:32;1.65;;;0.95;;
74223;SDS011;62585;49.706;18.216;2024-02-23T08:52:59;3.42;;;0.95;;
74223;SDS011;62585;49.706;18.216;2024-02-23T08:55:25;2.45;;;0.90;;
74223;SDS011;62585;49.706;18.216;2024-02-23T08:57:50;2.15;;;1.20;;
74223;SDS011;62585;49.706;18.216;2024-02-23T09:00:16;1.95;;;1.05;;
74223;SDS011;62585;49.706;18.216;2024-02-23T09:02:42;2.60;;;1.17;;
74223;SDS011;62585;49.706;18.216;2024-02-23T09:05:08;7.00;;;3.22;;
74223;SDS011;62585;49.706;18.216;2024-02-23T09:07:34;3.75;;;1.75;;
74223;SDS011;62585;49.706;18.216;2024-02-23T09:10:01;1.35;;;0.88;;
74223;SDS011;62585;49.706;18.216;2024-02-23T09:12:30;1.95;;;1.40;;
74223;SDS011;62585;49.706;18.216;2024-02-23T09:14:56;3.28;;;1.30;;
74223;SDS011;62585;49.706;18.216;2024-02-23T09:17:21;1.77;;;1.35;;
74223;SDS011;62585;49.706;18.216;2024-02-23T09:19:47;1.38;;;0.88;;
74223;SDS011;62585;49.706;18.216;2024-02-23T09:22:13;1.35;;;0.90;;
74223;SDS011;62585;49.706;18.216;2024-02-23T09:24:39;2.40;;;1.20;;
74223;SDS011;62585;49.706;18.216;2024-02-23T09:27:05;2.58;;;1.13;;
74223;SDS011;62585;49.706;18.216;2024-02-23T09:29:32;2.42;;;1.20;;
74223;SDS011;62585;49.706;18.216;2024-02-23T09:31:58;1.58;;;0.90;;
74223;SDS011;62585;49.706;18.216;2024-02-23T09:34:24;2.90;;;1.17;;
74223;SDS011;62585;49.706;18.216;2024-02-23T09:36:50;2.38;;;1.05;;
74223;SDS011;62585;49.706;18.216;2024-02-23T09:39:16;2.75;;;1.27;;
74223;SDS011;62585;49.706;18.216;2024-02-23T09:41:42;4.32;;;2.30;;
74223;SDS011;62585;49.706;18.216;2024-02-23T09:44:09;3.47;;;1.48;;
74223;SDS011;62585;49.706;18.216;2024-02-23T09:46:38;2.10;;;1.30;;
74223;SDS011;62585;49.706;18.216;2024-02-23T09:49:06;1.55;;;0.88;;
74223;SDS011;62585;49.706;18.216;2024-02-23T09:51:34;1.55;;;0.68;;
74223;SDS011;62585;49.706;18.216;2024-02-23T09:54:01;4.45;;;2.33;;
74223;SDS011;62585;49.706;18.216;2024-02-23T09:56:28;2.75;;;1.58;;
74223;SDS011;62585;49.706;18.216;2024-02-23T09:58:58;2.60;;;1.30;;
74223;SDS011;62585;49.706;18.216;2024-02-23T10:01:27;1.67;;;1.10;;
74223;SDS011;62585;49.706;18.216;2024-02-23T10:03:56;0.93;;;0.80;;
74223;SDS011;62585;49.706;18.216;2024-02-23T10:06:24;1.73;;;0.90;;
74223;SDS011;62585;49.706;18.216;2024-02-23T10:08:50;2.20;;;0.85;;
74223;SDS011;62585;49.706;18.216;2024-02-23T10:11:22;1.67;;;1.10;;
74223;SDS011;62585;49.706;18.216;2024-02-23T10:13:48;1.73;;;1.20;;
74223;SDS011;62585;49.706;18.216;2024-02-23T10:16:15;1.58;;;0.90;;
74223;SDS011;62585;49.706;18.216;2024-02-23T10:18:42;2.92;;;1.42;;
74223;SDS011;62585;49.706;18.216;2024-02-23T10:21:08;2.75;;;1.63;;
74223;SDS011;62585;49.706;18.216;2024-02-23T10:23:33;1.77;;;1.20;;
74223;SDS011;62585;49.706;18.216;2024-02-23T10:25:59;2.72;;;1.17;;
74223;SDS011;62585;49.706;18.216;2024-02-23T10:28:25;1.33;;;0.93;;
74223;SDS011;62585;49.706;18.216;2024-02-23T10:30:50;3.08;;;1.40;;
74223;SDS011;62585;49.706;18.216;2024-02-23T10:33:18;2.83;;;0.90;;
74223;SDS011;62585;49.706;18.216;2024-02-23T10:35:47;1.67;;;0.60;;
74223;SDS011;62585;49.706;18.216;2024-02-23T10:38:16;1.42;;;0.80;;
74223;SDS011;62585;49.706;18.216;2024-02-23T10:40:43;0.80;;;0.60;;
74223;SDS011;62585;49.706;18.216;2024-02-23T10:43:12;0.60;;;0.40;;
74223;SDS011;62585;49.706;18.216;2024-02-23T10:45:41;5.32;;;1.67;;
74223;SDS011;62585;49.706;18.216;2024-02-23T10:48:08;2.50;;;1.15;;
74223;SDS011;62585;49.706;18.216;2024-02-23T10:50:35;1.48;;;0.88;;
74223;SDS011;62585;49.706;18.216;2024-02-23T10:53:04;2.70;;;1.45;;
74223;SDS011;62585;49.706;18.216;2024-02-23T10:55:32;6.85;;;0.98;;
74223;SDS011;62585;49.706;18.216;2024-02-23T10:58:00;4.70;;;0.95;;
74223;SDS011;62585;49.706;18.216;2024-02-23T11:00:28;1.35;;;0.30;;
74223;SDS011;62585;49.706;18.216;2024-02-23T11:02:54;1.38;;;0.30;;
74223;SDS011;62585;49.706;18.216;2024-02-23T11:05:21;0.40;;;0.20;;
74223;SDS011;62585;49.706;18.216;2024-02-23T11:07:48;0.68;;;0.50;;
74223;SDS011;62585;49.706;18.216;2024-02-23T11:10:17;1.65;;;0.45;;
74223;SDS011;62585;49.706;18.216;2024-02-23T11:12:44;0.40;;;0.40;;
74223;SDS011;62585;49.706;18.216;2024-02-23T11:15:24;1.50;;;0.52;;
74223;SDS011;62585;49.706;18.216;2024-02-23T11:17:55;0.50;;;0.40;;
74223;SDS011;62585;49.706;18.216;2024-02-23T11:20:21;1.55;;;0.60;;
74223;SDS011;62585;49.706;18.216;2024-02-23T11:22:53;0.70;;;0.55;;
74223;SDS011;62585;49.706;18.216;2024-02-23T11:25:19;0.88;;;0.43;;
74223;SDS011;62585;49.706;18.216;2024-02-23T11:30:16;0.43;;;0.40;;
74223;SDS011;62585;49.706;18.216;2024-02-23T11:32:43;0.80;;;0.40;;
74223;SDS011;62585;49.706;18.216;2024-02-23T11:35:11;0.63;;;0.35;;
74223;SDS011;62585;49.706;18.216;2024-02-23T11:37:53;0.60;;;0.40;;
74223;SDS011;62585;49.706;18.216;2024-02-23T11:40:26;3.80;;;0.65;;
74223;SDS011;62585;49.706;18.216;2024-02-23T11:42:54;1.38;;;0.65;;
74223;SDS011;62585;49.706;18.216;2024-02-23T11:45:20;0.47;;;0.43;;
74223;SDS011;62585;49.706;18.216;2024-02-23T11:47:46;0.80;;;0.50;;
74223;SDS011;62585;49.706;18.216;2024-02-23T11:50:13;2.10;;;0.85;;
74223;SDS011;62585;49.706;18.216;2024-02-23T11:52:40;2.03;;;0.82;;
74223;SDS011;62585;49.706;18.216;2024-02-23T11:55:06;2.10;;;1.13;;
74223;SDS011;62585;49.706;18.216;2024-02-23T11:57:36;2.25;;;1.27;;
74223;SDS011;62585;49.706;18.216;2024-02-23T12:00:04;2.28;;;0.85;;
74223;SDS011;62585;49.706;18.216;2024-02-23T12:02:32;6.38;;;4.10;;
74223;SDS011;62585;49.706;18.216;2024-02-23T12:05:00;4.82;;;2.78;;
74223;SDS011;62585;49.706;18.216;2024-02-23T12:07:26;6.90;;;4.25;;
74223;SDS011;62585;49.706;18.216;2024-02-23T12:09:54;4.10;;;2.35;;
74223;SDS011;62585;49.706;18.216;2024-02-23T12:12:20;3.95;;;2.33;;
74223;SDS011;62585;49.706;18.216;2024-02-23T12:14:46;4.38;;;2.10;;
74223;SDS011;62585;49.706;18.216;2024-02-23T12:17:13;3.20;;;1.90;;
74223;SDS011;62585;49.706;18.216;2024-02-23T12:19:39;1.98;;;1.13;;
74223;SDS011;62585;49.706;18.216;2024-02-23T12:22:06;3.20;;;1.40;;
74223;SDS011;62585;49.706;18.216;2024-02-23T12:24:32;3.95;;;1.40;;
74223;SDS011;62585;49.706;18.216;2024-02-23T12:26:58;2.20;;;1.40;;
74223;SDS011;62585;49.706;18.216;2024-02-23T12:29:23;2.30;;;1.30;;
74223;SDS011;62585;49.706;18.216;2024-02-23T12:31:49;3.15;;;1.45;;
74223;SDS011;62585;49.706;18.216;2024-02-23T12:34:15;2.45;;;1.23;;
74223;SDS011;62585;49.706;18.216;2024-02-23T12:36:41;1.85;;;1.27;;
74223;SDS011;62585;49.706;18.216;2024-02-23T12:39:08;2.28;;;1.30;;
74223;SDS011;62585;49.706;18.216;2024-02-23T12:41:34;1.73;;;1.08;;
74223;SDS011;62585;49.706;18.216;2024-02-23T12:43:59;2.78;;;1.35;;
74223;SDS011;62585;49.706;18.216;2024-02-23T12:46:25;2.05;;;1.33;;
74223;SDS011;62585;49.706;18.216;2024-02-23T12:48:51;2.78;;;1.20;;
74223;SDS011;62585;49.706;18.216;2024-02-23T12:51:17;2.67;;;1.35;;
74223;SDS011;62585;49.706;18.216;2024-02-23T12:53:43;2.25;;;1.27;;
74223;SDS011;62585;49.706;18.216;2024-02-23T12:56:10;3.83;;;2.28;;
74223;SDS011;62585;49.706;18.216;2024-02-23T12:58:37;2.90;;;1.70;;
74223;SDS011;62585;49.706;18.216;2024-02-23T13:01:04;3.42;;;1.67;;
74223;SDS011;62585;49.706;18.216;2024-02-23T13:05:57;3.45;;;1.75;;
74223;SDS011;62585;49.706;18.216;2024-02-23T13:08:23;2.75;;;1.95;;
74223;SDS011;62585;49.706;18.216;2024-02-23T13:13:17;2.53;;;1.55;;
74223;SDS011;62585;49.706;18.216;2024-02-23T13:15:46;1.85;;;0.95;;
74223;SDS011;62585;49.706;18.216;2024-02-23T13:18:12;1.65;;;1.27;;
74223;SDS011;62585;49.706;18.216;2024-02-23T13:20:38;2.63;;;1.27;;
74223;SDS011;62585;49.706;18.216;2024-02-23T13:23:04;2.30;;;1.30;;
74223;SDS011;62585;49.706;18.216;2024-02-23T13:25:36;2.80;;;1.25;;
74223;SDS011;62585;49.706;18.216;2024-02-23T13:28:03;3.47;;;0.70;;
74223;SDS011;62585;49.706;18.216;2024-02-23T13:30:30;3.15;;;1.35;;
74223;SDS011;62585;49.706;18.216;2024-02-23T13:32:56;2.25;;;1.33;;
74223;SDS011;62585;49.706;18.216;2024-02-23T13:35:22;2.83;;;1.63;;
74223;SDS011;62585;49.706;18.216;2024-02-23T13:37:48;2.05;;;1.42;;
74223;SDS011;62585;49.706;18.216;2024-02-23T13:40:14;2.53;;;1.90;;
74223;SDS011;62585;49.706;18.216;2024-02-23T13:42:39;2.00;;;1.17;;
74223;SDS011;62585;49.706;18.216;2024-02-23T13:45:06;2.25;;;1.40;;
74223;SDS011;62585;49.706;18.216;2024-02-23T13:47:33;1.60;;;0.90;;
74223;SDS011;62585;49.706;18.216;2024-02-23T13:49:59;3.20;;;1.77;;
74223;SDS011;62585;49.706;18.216;2024-02-23T13:52:25;1.90;;;1.15;;
74223;SDS011;62585;49.706;18.216;2024-02-23T13:54:51;3.90;;;1.90;;
74223;SDS011;62585;49.706;18.216;2024-02-23T13:57:17;4.07;;;2.40;;
74223;SDS011;62585;49.706;18.216;2024-02-23T13:59:43;3.05;;;2.15;;
74223;SDS011;62585;49.706;18.216;2024-02-23T14:02:08;3.60;;;2.20;;
74223;SDS011;62585;49.706;18.216;2024-02-23T14:04:34;3.92;;;2.30;;
74223;SDS011;62585;49.706;18.216;2024-02-23T14:07:00;3.88;;;2.33;;
74223;SDS011;62585;49.706;18.216;2024-02-23T14:09:27;4.20;;;2.17;;
74223;SDS011;62585;49.706;18.216;2024-02-23T14:11:52;5.97;;;2.95;;
74223;SDS011;62585;49.706;18.216;2024-02-23T14:14:18;4.13;;;2.80;;
74223;SDS011;62585;49.706;18.216;2024-02-23T14:16:45;3.83;;;2.42;;
74223;SDS011;62585;49.706;18.216;2024-02-23T14:19:11;3.22;;;2.78;;
74223;SDS011;62585;49.706;18.216;2024-02-23T14:21:37;6.07;;;3.28;;
74223;SDS011;62585;49.706;18.216;2024-02-23T14:24:03;4.63;;;2.90;;
74223;SDS011;62585;49.706;18.216;2024-02-23T14:26:29;5.30;;;2.85;;
74223;SDS011;62585;49.706;18.216;2024-02-23T14:28:55;5.88;;;3.75;;
74223;SDS011;62585;49.706;18.216;2024-02-23T14:31:21;8.40;;;4.55;;
74223;SDS011;62585;49.706;18.216;2024-02-23T14:33:47;5.85;;;3.60;;
74223;SDS011;62585;49.706;18.216;2024-02-23T14:36:16;5.57;;;2.60;;
74223;SDS011;62585;49.706;18.216;2024-02-23T14:38:42;6.00;;;3.47;;